Time;durP1;ratioP1;P1;durP2;ratioP2;P2;SDS_P1;SDS_P2;PMS_P1;PMS_P2;Temp;Humidity;BMP_temperature;BMP_pressure;BME280_temperature;BME280_humidity;BME280_pressure;Samples;Min_cycle;Max_cycle;Signal;HPM_P1;HPM_P2
2023/05/03 00:00:23;;;;;;;13.63;8.40;;;;;;;8.66;79.08;96387.78;6164239;23;20761;-83
2023/05/03 00:02:50;;;;;;;12.77;7.63;;;;;;;8.68;79.34;96383.31;6165045;23;20169;-85
2023/05/03 00:05:16;;;;;;;12.10;8.77;;;;;;;8.69;79.45;96388.38;6164337;23;20151;-84
2023/05/03 00:07:42;;;;;;;9.70;8.20;;;;;;;8.70;79.55;96394.38;6163530;23;20163;-84
2023/05/03 00:10:09;;;;;;;13.93;8.17;;;;;;;8.67;80.43;96387.66;6164544;23;20244;-86
2023/05/03 00:12:36;;;;;;;9.97;7.70;;;;;;;8.63;79.91;96386.22;6188376;23;20167;-84
2023/05/03 00:15:02;;;;;;;9.47;7.90;;;;;;;8.57;79.81;96378.09;6164471;23;20253;-86
2023/05/03 00:17:27;;;;;;;11.80;8.07;;;;;;;8.58;79.52;96377.19;6165253;23;20164;-84
2023/05/03 00:19:55;;;;;;;9.90;7.50;;;;;;;8.56;79.67;96379.84;6191423;23;20229;-85
2023/05/03 00:22:21;;;;;;;13.47;8.47;;;;;;;8.45;80.53;96372.91;6164432;23;20165;-85
2023/05/03 00:24:46;;;;;;;9.13;7.07;;;;;;;8.48;79.78;96374.44;6188295;23;20285;-86
2023/05/03 00:27:11;;;;;;;9.30;7.17;;;;;;;8.26;80.94;96380.34;6161413;23;20158;-85
2023/05/03 00:29:36;;;;;;;10.30;8.20;;;;;;;8.30;80.80;96368.81;6187775;23;20623;-85
2023/05/03 00:32:03;;;;;;;8.77;7.60;;;;;;;8.21;80.35;96365.16;6162921;23;20158;-85
2023/05/03 00:34:28;;;;;;;10.97;8.13;;;;;;;8.16;80.43;96366.44;6212542;23;20175;-85
2023/05/03 00:36:53;;;;;;;10.17;7.77;;;;;;;8.10;80.65;96369.47;6165594;23;20632;-86
2023/05/03 00:39:19;;;;;;;11.17;8.50;;;;;;;8.02;82.12;96367.44;6165660;23;20183;-85
2023/05/03 00:41:44;;;;;;;11.77;8.40;;;;;;;7.95;83.69;96358.47;6164377;23;20183;-84
2023/05/03 00:44:09;;;;;;;11.87;8.20;;;;;;;7.92;81.87;96362.13;6188531;23;20154;-85
2023/05/03 00:46:34;;;;;;;13.07;8.40;;;;;;;7.97;83.00;96358.38;6161934;23;20166;-84
2023/05/03 00:49:00;;;;;;;11.23;8.10;;;;;;;7.98;83.48;96357.44;6162475;23;20216;-84
2023/05/03 00:51:26;;;;;;;9.70;7.77;;;;;;;8.00;83.48;96351.22;6162807;23;20162;-83
2023/05/03 00:53:52;;;;;;;13.17;7.83;;;;;;;8.06;83.64;96355.94;6167865;23;20155;-83
2023/05/03 00:56:22;;;;;;;10.03;7.83;;;;;;;8.05;83.32;96349.13;6174760;23;20179;-85
2023/05/03 00:58:47;;;;;;;11.20;7.77;;;;;;;8.12;83.77;96347.72;6202633;23;20178;-85
2023/05/03 01:01:14;;;;;;;10.70;8.83;;;;;;;8.15;83.80;96350.09;6201162;23;20150;-84
2023/05/03 01:03:40;;;;;;;10.90;8.07;;;;;;;8.18;83.93;96349.03;6171356;23;20158;-86
2023/05/03 01:06:05;;;;;;;10.03;8.30;;;;;;;8.17;83.57;96349.97;6166551;23;20163;-85
2023/05/03 01:08:36;;;;;;;12.40;8.43;;;;;;;8.14;84.01;96348.47;6192183;23;20213;-86
2023/05/03 01:11:07;;;;;;;10.03;7.93;;;;;;;8.19;84.17;96346.34;6221912;23;20158;-84
2023/05/03 01:13:52;;;;;;;9.37;8.07;;;;;;;8.21;82.92;96347.03;6223184;23;20154;-86
2023/05/03 01:16:26;;;;;;;10.57;7.97;;;;;;;8.20;83.90;96347.97;6222618;23;20174;-85
2023/05/03 01:18:53;;;;;;;12.70;7.90;;;;;;;8.13;84.49;96349.41;6167853;23;20568;-85
2023/05/03 01:21:21;;;;;;;12.23;8.63;;;;;;;8.20;84.22;96347.16;6192499;23;20188;-84
2023/05/03 01:23:58;;;;;;;12.70;8.07;;;;;;;8.21;83.58;96347.03;6167304;23;20165;-85
2023/05/03 01:26:25;;;;;;;12.47;7.80;;;;;;;8.12;83.19;96346.91;6190718;23;20150;-85
2023/05/03 01:28:51;;;;;;;12.30;7.53;;;;;;;8.02;83.82;96338.16;6193776;23;20209;-84
2023/05/03 01:31:28;;;;;;;9.27;7.43;;;;;;;8.03;83.03;96340.63;6192764;23;20493;-84
2023/05/03 01:34:15;;;;;;;8.23;7.30;;;;;;;7.86;82.57;96335.88;6215949;23;20369;-85
2023/05/03 01:36:42;;;;;;;9.97;7.53;;;;;;;7.79;82.94;96337.28;6190335;23;20162;-84
2023/05/03 01:39:12;;;;;;;12.87;7.77;;;;;;;7.70;83.61;96338.75;6190957;23;20227;-85
2023/05/03 01:41:39;;;;;;;11.47;7.60;;;;;;;7.68;84.02;96332.84;6165551;23;20241;-85
2023/05/03 01:44:05;;;;;;;8.53;6.90;;;;;;;7.58;82.97;96330.09;6191431;23;20170;-83
2023/05/03 01:46:30;;;;;;;9.00;7.07;;;;;;;7.47;83.77;96322.31;6190218;23;20166;-85
2023/05/03 01:48:55;;;;;;;10.43;7.43;;;;;;;7.44;84.79;96330.28;6166402;23;20173;-85
2023/05/03 01:51:21;;;;;;;9.97;8.03;;;;;;;7.35;85.06;96328.38;6166184;23;20598;-84
2023/05/03 01:53:46;;;;;;;10.23;7.67;;;;;;;7.35;85.07;96325.78;6166081;23;20210;-84
2023/05/03 01:56:11;;;;;;;11.57;7.67;;;;;;;7.30;84.55;96327.84;6165302;23;20188;-84
2023/05/03 01:58:36;;;;;;;10.23;7.57;;;;;;;7.27;84.88;96322.91;6191079;23;20177;-84
2023/05/03 02:01:04;;;;;;;10.33;7.37;;;;;;;7.19;85.79;96318.28;6189780;23;20695;-85
2023/05/03 02:03:30;;;;;;;10.43;7.77;;;;;;;7.15;85.15;96311.66;6166391;23;20185;-84
2023/05/03 02:05:55;;;;;;;11.53;7.53;;;;;;;7.15;85.43;96311.66;6165187;23;20224;-83
2023/05/03 02:08:20;;;;;;;10.80;8.03;;;;;;;7.12;85.05;96313.66;6190411;23;20177;-83
2023/05/03 02:10:46;;;;;;;12.43;8.73;;;;;;;7.06;84.96;96305.38;6190251;23;20150;-84
2023/05/03 02:13:11;;;;;;;14.13;8.40;;;;;;;7.05;84.77;96316.66;6165287;23;20162;-82
2023/05/03 02:15:36;;;;;;;10.13;7.47;;;;;;;7.02;84.68;96316.06;6189768;23;20255;-84
2023/05/03 02:18:02;;;;;;;12.90;8.23;;;;;;;6.98;84.81;96314.59;6213236;23;20154;-83
2023/05/03 02:20:27;;;;;;;12.07;7.43;;;;;;;6.91;84.63;96313.41;6165385;23;20212;-84
2023/05/03 02:22:53;;;;;;;12.73;8.03;;;;;;;6.85;85.05;96306.88;6165358;23;20232;-85
2023/05/03 02:25:18;;;;;;;10.43;8.20;;;;;;;6.87;85.63;96311.94;6190383;23;20534;-84
2023/05/03 02:27:43;;;;;;;14.03;8.90;;;;;;;6.91;86.37;96306.47;6189465;23;20165;-83
2023/05/03 02:30:09;;;;;;;14.20;9.30;;;;;;;6.88;87.26;96303.25;6164592;23;20200;-84
2023/05/03 02:32:34;;;;;;;12.63;9.40;;;;;;;6.90;87.18;96304.81;6165964;23;20671;-84
2023/05/03 02:35:00;;;;;;;13.47;9.30;;;;;;;6.89;87.62;96305.75;6189600;23;20184;-82
2023/05/03 02:37:25;;;;;;;11.17;8.60;;;;;;;6.91;87.68;96306.47;6189935;23;20162;-84
2023/05/03 02:39:50;;;;;;;15.53;9.43;;;;;;;6.86;89.74;96305.94;6215443;23;20620;-83
2023/05/03 02:42:16;;;;;;;13.17;8.60;;;;;;;6.86;88.32;96300.78;6165160;23;20169;-82
2023/05/03 02:44:41;;;;;;;13.47;9.00;;;;;;;6.84;87.99;96300.09;6165657;23;20161;-84
2023/05/03 02:47:07;;;;;;;12.00;9.00;;;;;;;6.83;87.37;96308.75;6163886;23;20186;-85
2023/05/03 02:49:32;;;;;;;14.57;8.73;;;;;;;6.78;87.38;96303.06;6164281;23;20186;-83
2023/05/03 02:51:58;;;;;;;16.40;8.40;;;;;;;6.71;87.44;96302.66;6189097;23;20168;-83
2023/05/03 02:54:23;;;;;;;12.40;9.20;;;;;;;6.68;87.35;96312.38;6189574;23;20174;-83
2023/05/03 02:56:48;;;;;;;12.63;8.80;;;;;;;6.62;87.14;96307.63;6164132;23;20165;-84
2023/05/03 02:59:14;;;;;;;10.20;8.80;;;;;;;6.54;87.08;96305.59;6164729;23;20213;-84
2023/05/03 03:01:39;;;;;;;10.77;8.37;;;;;;;6.50;87.29;96311.88;6190891;23;20682;-84
2023/05/03 03:04:05;;;;;;;12.43;8.53;;;;;;;6.43;87.67;96308.88;6165292;23;20174;-84
2023/05/03 03:06:30;;;;;;;12.03;8.23;;;;;;;6.41;87.26;96307.34;6189116;23;20583;-83
2023/05/03 03:08:56;;;;;;;11.80;8.23;;;;;;;6.36;87.19;96306.81;6189203;23;20182;-84
2023/05/03 03:11:22;;;;;;;13.13;7.77;;;;;;;6.35;87.17;96302.59;6156184;23;20221;-83
2023/05/03 03:13:48;;;;;;;12.13;7.73;;;;;;;6.29;86.79;96306.44;6161525;23;20495;-83
2023/05/03 03:16:13;;;;;;;9.90;7.60;;;;;;;6.23;87.11;96306.81;6133753;23;20178;-83
2023/05/03 03:18:38;;;;;;;10.20;7.33;;;;;;;6.24;87.43;96306.72;6185937;23;20181;-83
2023/05/03 03:21:04;;;;;;;11.17;7.40;;;;;;;6.17;86.72;96310.63;6134690;23;20169;-85
2023/05/03 03:23:29;;;;;;;9.83;7.37;;;;;;;6.17;86.95;96307.22;6158675;23;20155;-86
2023/05/03 03:25:55;;;;;;;12.20;7.53;;;;;;;6.08;86.71;96315.56;6182766;23;20159;-84
2023/05/03 03:28:20;;;;;;;9.80;8.50;;;;;;;6.11;87.33;96316.22;6134441;23;20178;-85
2023/05/03 03:30:45;;;;;;;11.63;7.90;;;;;;;6.11;86.79;96315.38;6158378;23;20158;-85
2023/05/03 03:33:11;;;;;;;11.50;7.93;;;;;;;6.09;86.96;96315.47;6134284;23;20245;-84
2023/05/03 03:35:37;;;;;;;13.47;9.50;;;;;;;6.10;89.49;96318.91;6133730;23;20178;-85
2023/05/03 03:38:02;;;;;;;14.23;10.50;;;;;;;6.22;91.41;96318.06;6182402;23;20171;-84
2023/05/03 03:40:28;;;;;;;14.90;9.77;;;;;;;6.17;89.56;96318.38;6133902;23;20180;-86
2023/05/03 03:42:53;;;;;;;12.07;8.73;;;;;;;6.13;87.93;96318.69;6134866;23;20165;-83
2023/05/03 03:45:18;;;;;;;11.47;8.57;;;;;;;6.12;88.45;96328.19;6134733;23;20155;-86
2023/05/03 03:47:44;;;;;;;13.87;9.20;;;;;;;6.13;88.75;96329.00;6159059;23;20589;-86
2023/05/03 03:50:09;;;;;;;17.00;10.80;;;;;;;6.21;89.83;96331.91;6135376;23;20241;-85
2023/05/03 03:52:35;;;;;;;17.73;10.53;;;;;;;6.15;89.87;96332.31;6135490;23;20477;-83
2023/05/03 03:55:00;;;;;;;13.63;9.47;;;;;;;6.14;89.09;96333.22;6133961;23;20179;-86
2023/05/03 03:57:28;;;;;;;17.43;10.90;;;;;;;5.99;89.65;96334.22;6134153;23;20250;-81
2023/05/03 03:59:54;;;;;;;14.80;10.20;;;;;;;6.14;89.87;96333.22;6134648;23;20190;-86
2023/05/03 04:02:20;;;;;;;14.17;10.03;;;;;;;6.09;88.81;96337.84;6160334;23;20154;-83
2023/05/03 04:04:45;;;;;;;17.57;11.40;;;;;;;6.16;89.51;96337.34;6136302;23;20246;-83
2023/05/03 04:07:11;;;;;;;14.80;9.70;;;;;;;6.12;88.66;96337.66;6135075;23;20597;-85
2023/05/03 04:09:36;;;;;;;17.27;10.30;;;;;;;6.15;88.07;96337.47;6160521;23;20201;-84
2023/05/03 04:12:02;;;;;;;13.23;9.23;;;;;;;6.18;87.97;96329.50;6152878;23;20177;-83
2023/05/03 04:14:27;;;;;;;10.73;8.83;;;;;;;6.21;87.44;96337.88;6214965;23;20174;-86
2023/05/03 04:16:53;;;;;;;12.10;9.13;;;;;;;6.19;87.10;96337.16;6164031;23;20253;-85
2023/05/03 04:19:20;;;;;;;13.43;9.53;;;;;;;6.16;86.39;96339.09;6165138;23;20177;-86
2023/05/03 04:21:46;;;;;;;14.17;8.83;;;;;;;6.21;86.57;96335.31;6216515;23;20193;-83
2023/05/03 04:24:16;;;;;;;12.83;9.00;;;;;;;6.32;86.62;96342.31;6164467;23;20748;-86
2023/05/03 04:26:41;;;;;;;14.30;10.20;;;;;;;6.32;86.74;96342.31;6215585;23;20241;-85
2023/05/03 04:29:07;;;;;;;15.50;10.23;;;;;;;6.38;86.85;96341.94;6189227;23;20182;-83
2023/05/03 04:31:32;;;;;;;14.40;10.20;;;;;;;6.42;86.09;96340.78;6165293;23;20168;-85
2023/05/03 04:33:57;;;;;;;14.40;10.13;;;;;;;6.52;86.88;96334.06;6165233;23;20168;-85
2023/05/03 04:36:24;;;;;;;14.93;10.33;;;;;;;6.69;86.74;96335.50;6189968;23;20177;-84
2023/05/03 04:38:50;;;;;;;13.47;9.73;;;;;;;6.67;87.77;96334.78;6189237;23;20184;-85
2023/05/03 04:41:16;;;;;;;15.17;11.43;;;;;;;6.80;86.85;96338.19;6190992;23;20561;-80
2023/05/03 04:43:42;;;;;;;14.27;10.10;;;;;;;6.96;87.10;96335.38;6164563;23;20180;-84
2023/05/03 04:46:10;;;;;;;14.93;10.47;;;;;;;6.99;87.26;96330.00;6165036;23;20158;-85
2023/05/03 04:48:38;;;;;;;19.17;11.20;;;;;;;7.24;86.68;96328.28;6166214;23;20189;-86
2023/05/03 04:51:04;;;;;;;15.30;11.13;;;;;;;7.29;86.94;96327.03;6166105;23;20599;-85
2023/05/03 04:53:29;;;;;;;15.80;11.30;;;;;;;7.43;88.10;96335.56;6219690;23;20174;-85
2023/05/03 04:55:55;;;;;;;16.53;11.90;;;;;;;7.51;87.55;96334.09;6163960;23;20178;-83
2023/05/03 04:58:20;;;;;;;19.27;12.43;;;;;;;7.49;87.84;96335.94;6165326;23;20505;-85
2023/05/03 05:00:46;;;;;;;15.60;11.10;;;;;;;7.64;87.20;96334.84;6165408;23;20169;-84
2023/05/03 05:03:11;;;;;;;17.40;11.03;;;;;;;7.74;87.39;96334.19;6190101;23;20164;-86
2023/05/03 05:05:36;;;;;;;15.27;10.27;;;;;;;7.80;86.41;96334.56;6164140;23;20503;-85
2023/05/03 05:08:01;;;;;;;21.53;12.20;;;;;;;7.81;86.60;96335.41;6213785;23;20158;-84
2023/05/03 05:10:27;;;;;;;16.50;11.30;;;;;;;7.76;86.76;96334.88;6190268;23;20169;-83
2023/05/03 05:13:02;;;;;;;16.37;10.83;;;;;;;7.93;86.42;96344.84;6190066;23;20169;-84
2023/05/03 05:15:28;;;;;;;16.40;11.57;;;;;;;7.84;86.27;96335.97;6165161;23;20623;-84
2023/05/03 05:17:53;;;;;;;14.80;10.97;;;;;;;8.03;86.49;96345.81;6164348;23;20170;-82
2023/05/03 05:21:14;;;;;;;16.10;11.13;;;;;;;8.01;86.06;96350.28;6165015;23;20181;-86
2023/05/03 05:23:47;;;;;;;16.70;10.97;;;;;;;7.98;85.17;96345.34;6094426;23;20145;-86
2023/05/03 05:26:12;;;;;;;16.47;11.53;;;;;;;8.13;85.50;96346.81;6186208;23;20173;-86
2023/05/03 05:33:54;;;;;;;18.27;11.03;;;;;;;8.04;85.72;96349.22;6202322;23;20228;-80
2023/05/03 05:36:20;;;;;;;15.17;11.20;;;;;;;8.13;85.74;96344.22;6189793;23;20647;-86
2023/05/03 05:38:45;;;;;;;17.33;11.40;;;;;;;8.14;84.69;96348.47;6164622;23;20182;-86
2023/05/03 05:41:11;;;;;;;18.63;11.60;;;;;;;8.01;85.31;96342.50;6185245;23;20158;-87
2023/05/03 05:43:36;;;;;;;16.87;11.43;;;;;;;8.14;85.62;96339.88;6185487;23;20496;-87
2023/05/03 05:46:02;;;;;;;19.60;10.27;;;;;;;8.17;85.86;96344.81;6184859;23;20173;-86
2023/05/03 05:48:27;;;;;;;15.80;11.13;;;;;;;8.29;84.92;96348.25;6160205;23;20171;-86
2023/05/03 05:50:53;;;;;;;15.57;10.47;;;;;;;8.43;85.56;96348.91;6185450;23;20165;-85
2023/05/03 05:53:18;;;;;;;19.20;11.70;;;;;;;8.49;85.16;96352.81;6160628;23;20217;-87
2023/05/03 05:55:43;;;;;;;15.60;10.70;;;;;;;8.66;84.07;96354.94;6160668;23;20278;-87
2023/05/03 05:58:12;;;;;;;17.10;11.67;;;;;;;8.70;85.09;96353.75;6160817;23;20230;-86
2023/05/03 06:00:41;;;;;;;21.33;13.27;;;;;;;8.74;84.09;96350.00;6185320;23;20146;-87
2023/05/03 06:03:06;;;;;;;18.23;13.03;;;;;;;8.84;83.84;96357.09;6162028;23;20190;-87
2023/05/03 06:05:32;;;;;;;19.57;13.63;;;;;;;8.90;83.16;96343.66;6161282;23;20185;-86
2023/05/03 06:07:58;;;;;;;15.13;11.03;;;;;;;9.05;81.98;96352.84;6185616;23;20160;-87
2023/05/03 06:10:24;;;;;;;18.77;12.23;;;;;;;9.07;82.51;96350.94;6186761;23;20175;-86
2023/05/03 06:12:52;;;;;;;17.17;12.13;;;;;;;9.34;82.26;96351.38;6161239;23;20210;-85
2023/05/03 06:15:18;;;;;;;19.20;12.10;;;;;;;9.33;81.28;96352.34;6186714;23;20182;-87
2023/05/03 06:17:44;;;;;;;14.70;10.87;;;;;;;9.27;81.35;96354.56;6162411;23;20245;-87
2023/05/03 06:20:10;;;;;;;18.63;12.20;;;;;;;9.30;82.21;96357.75;6186774;23;20179;-88
2023/05/03 06:22:36;;;;;;;19.47;11.73;;;;;;;9.36;81.76;96354.69;6161203;23;20165;-85
2023/05/03 06:25:02;;;;;;;16.60;12.33;;;;;;;9.22;82.27;96367.06;6185731;23;20178;-86
2023/05/03 06:27:27;;;;;;;22.03;12.63;;;;;;;9.36;81.49;96359.88;6185975;23;20162;-88
2023/05/03 06:29:53;;;;;;;15.60;11.47;;;;;;;9.38;81.48;96361.53;6159720;23;20205;-87
2023/05/03 06:32:18;;;;;;;16.50;11.80;;;;;;;9.59;80.47;96365.00;6159157;23;20636;-87
2023/05/03 06:34:43;;;;;;;15.30;10.87;;;;;;;9.45;80.98;96367.84;6184358;23;20582;-87
2023/05/03 06:37:09;;;;;;;16.93;12.40;;;;;;;9.59;81.03;96372.78;6158550;23;20162;-86
2023/05/03 06:39:56;;;;;;;;;;;;;;;;;;;;;
2023/05/03 06:42:33;;;;;;;20.47;13.33;;;;;;;9.90;79.19;96364.22;6202993;23;20241;-84
2023/05/03 06:49:12;;;;;;;19.63;12.77;;;;;;;10.09;78.91;96367.94;6124229;23;20190;-85
2023/05/03 06:51:47;;;;;;;16.23;11.97;;;;;;;10.02;77.97;96353.78;6015038;23;21016;-85
2023/05/03 07:03:45;;;;;;;17.37;12.90;;;;;;;10.20;79.38;96354.88;6210279;23;20181;-84
2023/05/03 07:06:30;;;;;;;18.80;13.00;;;;;;;10.30;78.49;96358.41;6150471;23;20234;-84
2023/05/03 07:09:10;;;;;;;16.03;13.00;;;;;;;10.62;77.55;96358.34;6145693;23;20202;-85
2023/05/03 07:12:04;;;;;;;17.50;12.57;;;;;;;10.80;77.02;96348.19;6118595;23;20180;-84
2023/05/03 07:14:43;;;;;;;15.27;12.33;;;;;;;10.67;76.08;96352.75;6121878;23;20160;-85
2023/05/03 07:17:43;;;;;;;16.80;12.67;;;;;;;10.58;76.69;96348.31;6097165;23;20172;-85
2023/05/03 07:24:13;;;;;;;;;;;;;;;;;;;;;
2023/05/03 07:38:05;;;;;;;;;;;;;;;;;;;;;
2023/05/03 07:41:14;;;;;;;15.67;12.17;;;;;;;11.73;71.98;96347.91;5908860;24;20551;-86
2023/05/03 07:50:10;;;;;;;18.63;13.07;;;;;;;12.30;71.51;96343.72;5866638;24;20268;-85
2023/05/03 07:53:22;;;;;;;17.27;12.63;;;;;;;12.26;68.69;96341.53;5852231;24;20166;-85
2023/05/03 08:03:26;;;;;;;18.43;12.37;;;;;;;12.33;69.63;96340.00;5873196;24;20639;-86
2023/05/03 08:07:12;;;;;;;15.57;13.60;;;;;;;12.37;68.69;96347.44;5870499;24;20495;-86
2023/05/03 08:09:58;;;;;;;18.23;14.07;;;;;;;12.40;68.17;96343.72;5815594;24;20195;-84
2023/05/03 08:16:57;;;;;;;16.67;13.40;;;;;;;12.94;67.23;96347.41;5925512;23;20202;-87
2023/05/03 08:19:26;;;;;;;17.77;13.47;;;;;;;13.05;65.86;96342.84;5985258;23;20192;-87
2023/05/03 08:22:06;;;;;;;16.77;13.20;;;;;;;13.29;65.40;96350.19;6008661;23;20602;-87
2023/05/03 08:28:39;;;;;;;15.33;12.70;;;;;;;13.86;63.95;96350.78;5951245;24;20808;-88
2023/05/03 08:31:09;;;;;;;16.13;12.73;;;;;;;13.82;63.63;96348.66;5980457;24;20167;-85
2023/05/03 08:33:42;;;;;;;16.23;13.30;;;;;;;14.22;62.11;96361.25;5981322;24;20171;-86
2023/05/03 08:36:31;;;;;;;18.43;13.90;;;;;;;14.12;62.04;96365.72;5956569;24;20228;-86
2023/05/03 08:41:38;;;;;;;15.73;12.50;;;;;;;14.41;60.61;96357.66;6210013;23;20205;-86
2023/05/03 08:44:26;;;;;;;15.00;12.40;;;;;;;14.73;61.46;96362.31;6165376;23;20158;-85
2023/05/03 08:46:51;;;;;;;18.17;13.27;;;;;;;14.43;61.45;96364.38;6186579;23;20142;-85
2023/05/03 08:49:17;;;;;;;14.10;12.10;;;;;;;15.22;59.65;96370.47;6195158;23;20825;-86
2023/05/03 08:51:47;;;;;;;13.77;12.27;;;;;;;15.35;59.28;96368.22;6159302;23;20238;-84
2023/05/03 08:54:19;;;;;;;16.77;12.33;;;;;;;14.94;60.04;96370.66;6184862;23;20163;-85
2023/05/03 08:56:46;;;;;;;16.90;13.43;;;;;;;15.11;58.68;96373.38;6161542;23;20624;-85
2023/05/03 08:59:12;;;;;;;16.67;13.47;;;;;;;14.27;59.94;96366.03;6184740;23;20185;-86
2023/05/03 09:01:39;;;;;;;13.93;12.43;;;;;;;14.64;61.22;96373.69;6186465;23;20221;-85
2023/05/03 09:04:10;;;;;;;14.20;11.87;;;;;;;14.50;60.70;96375.09;6199761;23;20142;-86
2023/05/03 09:06:37;;;;;;;13.90;12.40;;;;;;;14.94;61.54;96357.56;6206220;23;20155;-86
2023/05/03 09:09:06;;;;;;;17.40;13.80;;;;;;;14.91;59.41;96364.88;6203660;23;20269;-86
2023/05/03 09:11:32;;;;;;;15.17;13.10;;;;;;;14.77;59.69;96368.91;6196530;23;20180;-86
2023/05/03 09:14:40;;;;;;;14.90;13.30;;;;;;;14.44;60.17;96368.63;6187162;23;20159;-85
2023/05/03 09:17:19;;;;;;;15.37;12.67;;;;;;;14.31;61.28;96359.53;6184084;23;20166;-86
2023/05/03 09:19:58;;;;;;;16.20;12.47;;;;;;;14.88;62.12;96355.56;6186832;23;20182;-86
2023/05/03 09:22:36;;;;;;;16.77;13.30;;;;;;;14.77;61.65;96368.09;6187188;23;20150;-87
2023/05/03 09:25:03;;;;;;;15.33;12.20;;;;;;;14.92;59.58;96372.56;6191401;23;20157;-84
2023/05/03 09:27:29;;;;;;;16.97;12.23;;;;;;;14.56;60.88;96365.78;6213989;23;20226;-86
2023/05/03 09:29:54;;;;;;;14.70;12.40;;;;;;;14.64;61.08;96358.84;6164624;23;20229;-86
2023/05/03 09:32:28;;;;;;;13.70;12.10;;;;;;;14.88;61.54;96366.03;6188254;23;20162;-86
2023/05/03 09:35:17;;;;;;;14.77;12.07;;;;;;;14.89;59.97;96359.81;6188155;23;20491;-85
2023/05/03 09:37:49;;;;;;;16.00;12.07;;;;;;;15.17;59.77;96364.88;6212883;23;20151;-87
2023/05/03 09:40:25;;;;;;;12.53;11.23;;;;;;;15.52;59.04;96356.84;6186459;23;20269;-86
2023/05/03 09:43:15;;;;;;;12.17;10.97;;;;;;;16.28;57.37;96357.69;6187000;23;20181;-86
2023/05/03 09:45:40;;;;;;;18.83;12.43;;;;;;;16.41;56.62;96360.63;6163470;23;20150;-87
2023/05/03 09:48:07;;;;;;;15.90;13.00;;;;;;;15.93;55.81;96369.28;6186994;23;20493;-87
2023/05/03 09:50:38;;;;;;;14.87;12.20;;;;;;;16.39;56.59;96365.22;6186712;23;20165;-87
2023/05/03 09:53:05;;;;;;;12.40;10.80;;;;;;;16.85;54.42;96363.75;6180757;23;20165;-85
2023/05/03 09:55:35;;;;;;;12.00;10.75;;;;;;;16.83;53.32;96359.66;6184127;23;20175;-86
2023/05/03 09:58:07;;;;;;;12.70;10.93;;;;;;;16.98;52.85;96358.00;6183802;23;20163;-86
2023/05/03 10:00:36;;;;;;;12.50;11.20;;;;;;;16.90;53.65;96364.06;6159719;23;20544;-85
2023/05/03 10:03:19;;;;;;;13.50;11.85;;;;;;;16.35;54.70;96364.75;6158339;23;20158;-86
2023/05/03 10:06:02;;;;;;;12.07;10.88;;;;;;;16.42;53.75;96359.66;6182734;23;20159;-88
2023/05/03 10:08:38;;;;;;;13.82;11.10;;;;;;;16.11;53.40;96364.72;6159406;23;20213;-86
2023/05/03 10:11:07;;;;;;;12.57;11.27;;;;;;;15.91;55.60;96363.38;6205628;23;20134;-87
2023/05/03 10:13:35;;;;;;;13.18;11.77;;;;;;;16.33;55.77;96356.22;6219753;23;20249;-87
2023/05/03 10:16:23;;;;;;;13.38;10.73;;;;;;;16.96;54.23;96355.56;6160746;23;20174;-86
2023/05/03 10:19:32;;;;;;;13.65;11.13;;;;;;;16.24;52.86;96362.44;6187152;23;20950;-86
2023/05/03 10:22:05;;;;;;;16.15;10.88;;;;;;;16.63;55.87;96357.38;6101898;23;20602;-86
2023/05/03 10:24:34;;;;;;;14.38;11.88;;;;;;;16.64;54.57;96356.38;6077771;23;20160;-86
2023/05/03 10:27:00;;;;;;;14.10;11.25;;;;;;;16.65;52.91;96354.56;6074812;23;20602;-85
2023/05/03 10:29:36;;;;;;;14.65;11.15;;;;;;;16.03;54.19;96349.81;6075120;23;20246;-85
2023/05/03 10:32:09;;;;;;;15.45;11.98;;;;;;;15.93;55.07;96346.53;6100493;23;20166;-84
2023/05/03 10:34:48;;;;;;;11.43;9.93;;;;;;;15.81;54.42;96342.56;6096594;23;20160;-85
2023/05/03 10:37:33;;;;;;;13.05;11.77;;;;;;;15.66;55.77;96350.22;6077359;23;20167;-87
2023/05/03 10:40:42;;;;;;;15.30;11.77;;;;;;;15.27;56.41;96344.63;6096019;23;20187;-87
2023/05/03 10:43:42;;;;;;;13.50;11.10;;;;;;;16.06;56.32;96335.56;6041201;23;20325;-87
2023/05/03 10:46:41;;;;;;;14.70;11.15;;;;;;;16.63;55.70;96333.75;6039851;23;20180;-87
2023/05/03 10:49:39;;;;;;;18.07;10.63;;;;;;;17.24;52.09;96329.72;6016978;23;20193;-86
2023/05/03 10:52:42;;;;;;;17.17;9.88;;;;;;;17.06;50.99;96330.94;6009554;23;20170;-87
2023/05/03 10:55:34;;;;;;;13.73;10.70;;;;;;;16.42;50.47;96330.81;6033525;23;20182;-87
2023/05/03 10:58:18;;;;;;;13.48;9.88;;;;;;;17.26;50.42;96329.53;6009567;23;20170;-87
2023/05/03 11:01:04;;;;;;;14.75;11.13;;;;;;;17.48;51.25;96314.81;6040932;23;20196;-85
2023/05/03 11:04:11;;;;;;;13.27;10.27;;;;;;;16.58;50.17;96309.00;6040730;23;20623;-87
2023/05/03 11:06:45;;;;;;;10.85;9.63;;;;;;;16.60;50.08;96312.28;6020298;23;20184;-86
2023/05/03 11:09:35;;;;;;;13.15;10.82;;;;;;;16.80;50.95;96315.41;6038913;23;20185;-87
2023/05/03 11:12:32;;;;;;;14.82;10.65;;;;;;;15.74;53.47;96312.78;6040491;23;20160;-87
2023/05/03 11:15:23;;;;;;;12.20;9.60;;;;;;;16.81;50.10;96317.06;6072560;23;20176;-86
2023/05/03 11:18:07;;;;;;;11.10;10.00;;;;;;;17.26;49.97;96309.34;6099070;23;20575;-86
2023/05/03 11:26:56;;;;;;;11.98;8.38;;;;;;;17.90;45.00;96306.56;6184817;23;20201;-85
2023/05/03 11:29:28;;;;;;;8.82;7.38;;;;;;;18.22;43.79;96296.84;6195895;23;20213;-85
2023/05/03 11:32:49;;;;;;;9.57;8.25;;;;;;;18.21;42.07;96292.56;6190045;23;20166;-85
2023/05/03 11:35:18;;;;;;;11.57;8.90;;;;;;;18.46;47.45;96298.41;6062459;23;20248;-85
2023/05/03 11:41:56;;;;;;;;;;;;;;;;;;;;;
2023/05/03 11:47:58;;;;;;;8.60;7.05;;;;;;;19.10;40.67;96293.53;5980982;24;20166;-85
2023/05/03 11:56:42;;;;;;;8.30;7.45;;;;;;;18.59;41.33;96296.81;6093374;23;21022;-85
2023/05/03 12:02:49;;;;;;;10.05;9.13;;;;;;;18.38;43.19;96300.16;6035611;23;20181;-79
2023/05/03 12:05:14;;;;;;;10.23;7.65;;;;;;;18.66;44.20;96289.88;6010419;23;20197;-80
2023/05/03 13:15:43;;;;;;;8.48;7.10;;;;;;;17.03;43.76;96237.59;6175063;23;20438;-87
2023/05/03 13:18:13;;;;;;;7.50;6.28;;;;;;;17.23;43.09;96232.78;6172098;23;20253;-87
2023/05/03 13:20:54;;;;;;;9.60;6.55;;;;;;;16.86;44.58;96231.59;6198437;23;20164;-88
2023/05/03 13:23:22;;;;;;;7.30;6.57;;;;;;;17.39;42.81;96235.28;6188826;23;20154;-87
2023/05/03 13:25:49;;;;;;;6.97;6.28;;;;;;;17.90;41.59;96226.94;6163177;23;20157;-85
2023/05/03 13:28:19;;;;;;;5.72;5.13;;;;;;;18.29;40.32;96221.53;6190951;23;20610;-89
2023/05/03 13:30:44;;;;;;;9.23;5.85;;;;;;;18.15;38.52;96228.38;6165191;23;20238;-88
2023/05/03 13:33:10;;;;;;;6.20;5.63;;;;;;;18.80;38.67;96219.03;6164637;23;20170;-87
2023/05/03 13:35:35;;;;;;;7.68;5.50;;;;;;;18.82;37.57;96228.38;6188313;23;20193;-87
2023/05/03 13:38:01;;;;;;;8.85;7.05;;;;;;;19.03;37.54;96219.75;6162602;23;20160;-87
2023/05/03 13:40:29;;;;;;;7.03;5.43;;;;;;;17.74;37.37;96223.44;6163428;23;20197;-88
2023/05/03 13:42:54;;;;;;;9.00;5.57;;;;;;;18.50;37.36;96220.81;6188415;23;20185;-88
2023/05/03 13:45:20;;;;;;;9.25;4.97;;;;;;;18.88;37.80;96218.94;6188270;23;20803;-86
2023/05/03 13:47:45;;;;;;;7.40;6.05;;;;;;;18.94;37.97;96211.13;6162013;23;20604;-87
2023/05/03 13:50:20;;;;;;;7.32;5.55;;;;;;;18.80;37.80;96204.03;6187627;23;20178;-87
2023/05/03 13:53:15;;;;;;;6.65;5.28;;;;;;;19.15;37.35;96199.00;6163107;23;20156;-89
2023/05/03 13:55:47;;;;;;;8.20;6.03;;;;;;;18.99;39.20;96201.84;6165592;23;20251;-88
2023/05/03 13:58:17;;;;;;;8.18;5.00;;;;;;;18.70;39.65;96203.50;6163609;23;20187;-88
2023/05/03 14:00:44;;;;;;;5.88;4.82;;;;;;;18.14;39.64;96203.09;6164220;23;20237;-89
2023/05/03 14:03:10;;;;;;;6.28;5.35;;;;;;;18.08;38.48;96193.28;6188784;23;20592;-87
2023/05/03 14:05:36;;;;;;;5.80;4.32;;;;;;;18.49;39.60;96196.31;6188149;23;20154;-88
2023/05/03 14:08:12;;;;;;;;;;;;;;;;;;;;;
2023/05/03 14:10:40;;;;;;;6.82;5.22;;;;;;;19.05;37.49;96195.84;6213698;23;20220;-88
2023/05/03 14:13:08;;;;;;;5.90;5.22;;;;;;;18.86;38.19;96182.28;6188288;23;20604;-87
2023/05/03 14:15:38;;;;;;;6.45;5.65;;;;;;;19.05;36.91;96182.69;6189004;23;20654;-87
2023/05/03 14:18:03;;;;;;;8.05;6.25;;;;;;;19.32;36.22;96182.00;6188462;23;20188;-88
2023/05/03 14:20:29;;;;;;;8.48;6.30;;;;;;;19.15;37.54;96170.06;6164420;23;20245;-88
2023/05/03 14:23:15;;;;;;;6.75;5.35;;;;;;;18.88;39.63;96179.47;6163355;23;20162;-88